createdAt,value
2023-05-12T00:01:14.357Z,61.30
2023-05-12T00:03:41.851Z,61.40
2023-05-12T00:06:08.807Z,61.70
2023-05-12T00:08:35.600Z,61.80
2023-05-12T00:11:02.874Z,62.00
2023-05-12T00:13:29.952Z,62.30
2023-05-12T00:15:59.024Z,62.50
2023-05-12T00:18:26.494Z,62.70
2023-05-12T00:20:55.113Z,62.90
2023-05-12T00:23:22.957Z,62.70
2023-05-12T00:25:50.505Z,62.70
2023-05-12T00:28:18.652Z,62.80
2023-05-12T00:30:46.000Z,63.20
2023-05-12T00:33:12.954Z,62.90
2023-05-12T00:35:39.834Z,62.90
2023-05-12T00:38:06.628Z,63.10
2023-05-12T00:40:33.461Z,62.80
2023-05-12T00:43:00.353Z,63.10
2023-05-12T00:45:29.448Z,63.30
2023-05-12T00:47:57.377Z,63.30
2023-05-12T00:50:24.764Z,63.40
2023-05-12T00:52:52.636Z,62.90
2023-05-12T00:55:19.592Z,62.80
2023-05-12T00:57:46.632Z,63.50
2023-05-12T01:00:14.080Z,64.20
2023-05-12T01:02:41.232Z,64.70
2023-05-12T01:05:09.924Z,64.40
2023-05-12T01:07:39.042Z,64.70
2023-05-12T01:10:20.630Z,64.40
2023-05-12T01:12:48.371Z,65.30
2023-05-12T01:15:15.986Z,65.80
2023-05-12T01:17:53.216Z,66.00
2023-05-12T01:20:23.076Z,66.10
2023-05-12T01:22:50.303Z,66.50
2023-05-12T01:25:19.350Z,66.70
2023-05-12T01:27:46.747Z,66.70
2023-05-12T01:30:18.294Z,66.80
2023-05-12T01:32:45.671Z,66.70
2023-05-12T01:35:12.528Z,66.60
2023-05-12T01:37:39.354Z,66.60
2023-05-12T01:40:06.887Z,66.70
2023-05-12T01:42:33.668Z,66.80
2023-05-12T01:45:00.546Z,66.80
2023-05-12T01:47:27.432Z,66.90
2023-05-12T01:49:54.396Z,67.10
2023-05-12T01:52:22.557Z,67.10
2023-05-12T01:54:51.383Z,67.40
2023-05-12T01:57:18.552Z,67.70
2023-05-12T01:59:45.415Z,67.70
2023-05-12T02:02:12.516Z,67.70
2023-05-12T02:04:39.411Z,67.80
2023-05-12T02:07:06.302Z,67.80
2023-05-12T02:09:33.167Z,67.80
2023-05-12T02:12:00.800Z,67.60
2023-05-12T02:14:27.704Z,67.60
2023-05-12T02:16:55.496Z,67.50
2023-05-12T02:19:22.359Z,67.20
2023-05-12T02:21:49.221Z,67.20
2023-05-12T02:24:18.950Z,67.10
2023-05-12T02:26:45.978Z,67.00
2023-05-12T02:29:12.819Z,67.60
2023-05-12T02:31:39.767Z,66.90
2023-05-12T02:34:06.888Z,66.90
2023-05-12T02:36:33.892Z,66.80
2023-05-12T02:39:00.680Z,66.70
2023-05-12T02:41:27.469Z,66.60
2023-05-12T02:43:55.124Z,66.70
2023-05-12T02:46:22.020Z,66.90
2023-05-12T02:48:48.944Z,67.10
2023-05-12T02:51:15.828Z,67.30
2023-05-12T02:53:42.602Z,67.70
2023-05-12T02:56:09.385Z,67.90
2023-05-12T02:58:36.523Z,67.90
2023-05-12T03:01:10.852Z,68.00
2023-05-12T03:03:39.162Z,67.80
2023-05-12T03:06:06.611Z,66.10
2023-05-12T03:08:33.423Z,63.70
2023-05-12T03:11:00.474Z,61.20
2023-05-12T03:13:27.336Z,59.10
2023-05-12T03:15:54.472Z,57.40
2023-05-12T03:18:21.382Z,56.60
2023-05-12T03:20:48.302Z,56.00
2023-05-12T03:23:15.146Z,55.50
2023-05-12T03:25:42.022Z,55.30
2023-05-12T03:28:08.880Z,55.00
2023-05-12T03:30:35.899Z,55.00
2023-05-12T03:33:02.717Z,54.70
2023-05-12T03:35:29.659Z,55.00
2023-05-12T03:37:56.585Z,55.00
2023-05-12T03:40:23.467Z,54.70
2023-05-12T03:42:50.412Z,54.30
2023-05-12T03:45:17.158Z,54.10
2023-05-12T03:47:44.052Z,53.90
2023-05-12T03:50:11.361Z,53.30
2023-05-12T03:52:38.693Z,53.10
2023-05-12T03:55:07.136Z,53.10
2023-05-12T03:57:36.436Z,52.70
2023-05-12T04:00:04.889Z,53.00
2023-05-12T04:02:31.884Z,53.10
2023-05-12T04:04:58.743Z,53.30
2023-05-12T04:07:25.503Z,53.60
2023-05-12T04:09:52.281Z,53.80
2023-05-12T04:12:19.074Z,53.70
2023-05-12T04:14:45.931Z,53.80
2023-05-12T04:17:12.797Z,54.50
2023-05-12T04:19:39.589Z,54.70
2023-05-12T04:22:06.426Z,55.00
2023-05-12T04:24:33.349Z,55.30
2023-05-12T04:27:00.568Z,54.90
2023-05-12T04:29:27.551Z,56.10
2023-05-12T04:31:55.696Z,56.10
2023-05-12T04:34:22.501Z,56.50
2023-05-12T04:36:49.376Z,57.00
2023-05-12T04:39:16.323Z,57.80
2023-05-12T04:41:43.072Z,57.90
2023-05-12T04:44:09.865Z,57.60
2023-05-12T04:46:36.761Z,57.40
2023-05-12T04:49:03.572Z,57.20
2023-05-12T04:51:30.366Z,57.00
2023-05-12T04:53:57.139Z,57.10
2023-05-12T04:56:23.986Z,57.40
2023-05-12T04:58:50.957Z,57.30
2023-05-12T05:01:18.017Z,57.30
2023-05-12T05:03:44.986Z,56.70
2023-05-12T05:06:11.838Z,56.70
2023-05-12T05:08:38.688Z,56.60
2023-05-12T05:11:05.687Z,56.00
2023-05-12T05:13:32.454Z,56.40
2023-05-12T05:15:59.343Z,56.50
2023-05-12T05:18:26.336Z,56.90
2023-05-12T05:23:23.055Z,56.90
2023-05-12T05:25:49.806Z,56.60
2023-05-12T05:28:17.010Z,56.70
2023-05-12T05:30:43.864Z,56.60
2023-05-12T05:33:12.573Z,56.60
2023-05-12T05:35:39.497Z,56.30
2023-05-12T05:38:06.373Z,56.30
2023-05-12T05:40:44.906Z,56.40
2023-05-12T05:43:18.826Z,56.60
2023-05-12T05:45:45.816Z,56.40
2023-05-12T05:48:12.717Z,56.20
2023-05-12T05:50:39.652Z,55.90
2023-05-12T05:53:06.808Z,55.60
2023-05-12T05:55:33.580Z,55.50
2023-05-12T05:58:00.373Z,55.10
2023-05-12T06:00:27.390Z,54.90
2023-05-12T06:02:54.248Z,55.40
2023-05-12T06:05:21.390Z,55.90
2023-05-12T06:07:48.465Z,55.10
2023-05-12T06:10:15.377Z,54.70
2023-05-12T06:12:43.200Z,55.60
2023-05-12T06:15:11.037Z,54.30
2023-05-12T06:17:38.382Z,54.70
2023-05-12T06:20:06.656Z,55.50
2023-05-12T06:22:34.825Z,55.40
2023-05-12T06:25:02.376Z,55.10
2023-05-12T06:27:29.558Z,54.80
2023-05-12T06:29:56.367Z,54.70
2023-05-12T06:32:23.193Z,54.60
2023-05-12T06:34:50.031Z,54.20
2023-05-12T06:37:16.792Z,53.90
2023-05-12T06:39:43.633Z,54.10
2023-05-12T06:42:11.538Z,53.60
2023-05-12T06:44:41.124Z,53.60
2023-05-12T06:47:09.060Z,53.30
2023-05-12T06:49:37.183Z,54.30
2023-05-12T06:52:07.271Z,54.70
2023-05-12T06:54:34.851Z,54.70
2023-05-12T06:57:01.610Z,53.80
2023-05-12T06:59:28.605Z,54.10
2023-05-12T07:01:55.447Z,54.60
2023-05-12T07:04:22.783Z,54.20
2023-05-12T07:06:49.943Z,53.80
2023-05-12T07:09:18.737Z,53.50
2023-05-12T07:11:45.974Z,53.90
2023-05-12T07:14:12.897Z,54.20
2023-05-12T07:16:39.955Z,55.70
2023-05-12T07:19:09.015Z,55.20
2023-05-12T07:21:37.259Z,55.10
2023-05-12T07:24:06.060Z,54.60
2023-05-12T07:26:33.143Z,53.90
2023-05-12T07:29:00.979Z,53.90
2023-05-12T07:31:28.673Z,53.20
2023-05-12T07:33:56.391Z,53.40
2023-05-12T07:36:23.555Z,54.00
2023-05-12T07:38:50.399Z,54.10
2023-05-12T07:41:18.111Z,54.80
2023-05-12T07:43:45.621Z,53.70
2023-05-12T07:46:12.580Z,53.30
2023-05-12T07:48:40.505Z,52.00
2023-05-12T07:51:07.613Z,52.20
2023-05-12T07:53:34.650Z,52.70
2023-05-12T07:56:01.557Z,52.80
2023-05-12T07:58:28.418Z,53.30
2023-05-12T08:00:55.433Z,53.10
2023-05-12T08:03:22.280Z,52.90
2023-05-12T08:05:49.170Z,53.20
2023-05-12T08:08:16.842Z,52.60
2023-05-12T08:10:44.337Z,53.00
2023-05-12T08:13:11.323Z,53.30
2023-05-12T08:15:38.740Z,52.60
2023-05-12T08:18:05.679Z,53.20
2023-05-12T08:20:32.575Z,52.40
2023-05-12T08:22:59.358Z,52.10
2023-05-12T08:25:27.853Z,52.60
2023-05-12T08:27:55.110Z,52.70
2023-05-12T08:30:21.929Z,52.60
2023-05-12T08:32:48.834Z,50.90
2023-05-12T08:35:27.353Z,50.30
2023-05-12T08:38:00.069Z,50.60
2023-05-12T08:40:41.903Z,49.80
2023-05-12T08:43:41.959Z,50.90
2023-05-12T08:46:15.689Z,53.00
2023-05-12T08:48:45.177Z,53.30
2023-05-12T08:51:23.772Z,53.70
2023-05-12T08:53:55.105Z,53.60
2023-05-12T08:59:27.180Z,53.40
2023-05-12T09:01:55.438Z,53.60
2023-05-12T09:04:22.387Z,51.90
2023-05-12T09:06:49.824Z,52.30
2023-05-12T09:09:20.605Z,53.40
2023-05-12T09:11:51.596Z,54.10
2023-05-12T09:14:28.697Z,53.50
2023-05-12T09:17:03.570Z,53.50
2023-05-12T09:19:48.224Z,53.70
2023-05-12T09:22:26.889Z,54.00
2023-05-12T09:25:08.887Z,53.80
2023-05-12T09:27:49.725Z,53.70
2023-05-12T09:30:22.493Z,54.00
2023-05-12T09:32:49.370Z,53.50
2023-05-12T09:35:16.274Z,53.70
2023-05-12T09:37:43.322Z,53.30
2023-05-12T09:40:11.590Z,54.30
2023-05-12T09:42:42.867Z,53.00
2023-05-12T09:45:13.989Z,52.60
2023-05-12T09:47:49.484Z,52.90
2023-05-12T09:50:19.419Z,53.20
2023-05-12T09:52:46.146Z,52.60
2023-05-12T09:55:21.602Z,52.10
2023-05-12T09:57:48.715Z,52.20
2023-05-12T10:00:41.233Z,51.90
2023-05-12T10:03:18.574Z,52.30
2023-05-12T10:05:54.292Z,53.10
2023-05-12T10:08:52.068Z,54.10
2023-05-12T10:11:36.858Z,53.00
2023-05-12T10:14:10.024Z,51.50
2023-05-12T10:16:37.079Z,52.20
2023-05-12T10:19:05.794Z,52.40
2023-05-12T10:21:42.386Z,53.30
2023-05-12T10:24:09.577Z,52.60
2023-05-12T10:26:41.024Z,51.30
2023-05-12T10:29:08.783Z,51.60
2023-05-12T10:31:37.321Z,51.40
2023-05-12T10:34:13.014Z,52.40
2023-05-12T10:36:50.969Z,52.20
2023-05-12T10:39:17.940Z,52.00
2023-05-12T10:41:51.722Z,51.80
2023-05-12T10:44:28.086Z,51.30
2023-05-12T10:47:01.454Z,51.50
2023-05-12T10:49:41.944Z,52.10
2023-05-12T10:52:11.853Z,52.10
2023-05-12T10:54:45.576Z,52.30
2023-05-12T10:57:17.934Z,52.50
2023-05-12T11:00:02.552Z,52.80
2023-05-12T11:02:34.731Z,53.00
2023-05-12T11:05:13.063Z,53.00
2023-05-12T11:07:41.174Z,51.80
2023-05-12T11:10:13.216Z,51.80
2023-05-12T11:12:44.081Z,51.30
2023-05-12T11:15:12.205Z,50.80
2023-05-12T11:17:42.217Z,50.20
2023-05-12T11:20:30.896Z,50.00
2023-05-12T11:23:07.373Z,50.40
2023-05-12T11:25:41.032Z,50.10
2023-05-12T11:28:15.224Z,49.70
2023-05-12T11:30:58.259Z,49.40
2023-05-12T11:33:46.116Z,50.00
2023-05-12T11:36:21.892Z,51.20
2023-05-12T11:38:50.502Z,51.10
2023-05-12T11:41:26.359Z,51.70
2023-05-12T11:43:53.472Z,52.00
2023-05-12T11:46:30.124Z,51.50
2023-05-12T11:49:12.667Z,50.90
2023-05-12T11:51:43.321Z,49.70
2023-05-12T11:54:12.930Z,49.30
2023-05-12T11:56:50.071Z,50.30
2023-05-12T11:59:33.789Z,50.70
2023-05-12T12:02:31.191Z,50.70
2023-05-12T12:04:58.208Z,50.70
2023-05-12T12:07:39.338Z,50.60
2023-05-12T12:10:22.492Z,50.80
2023-05-12T12:12:49.334Z,50.50
2023-05-12T12:15:19.057Z,50.60
2023-05-12T12:17:46.154Z,51.00
2023-05-12T12:20:13.046Z,51.20
2023-05-12T12:22:39.800Z,51.00
2023-05-12T12:25:13.152Z,51.10
2023-05-12T12:27:45.979Z,50.80
2023-05-12T12:30:13.644Z,50.50
2023-05-12T12:32:40.449Z,49.80
2023-05-12T12:35:08.118Z,49.10
2023-05-12T12:37:35.020Z,48.80
2023-05-12T12:40:07.983Z,48.80
2023-05-12T12:42:36.090Z,48.40
2023-05-12T12:45:04.567Z,48.00
2023-05-12T12:47:32.096Z,48.40
2023-05-12T12:49:59.714Z,48.00
2023-05-12T12:52:26.891Z,47.90
2023-05-12T12:54:54.377Z,48.20
2023-05-12T12:57:22.870Z,48.50
2023-05-12T12:59:50.295Z,49.30
2023-05-12T13:02:17.251Z,49.00
2023-05-12T13:04:44.178Z,49.60
2023-05-12T13:07:10.964Z,49.70
2023-05-12T13:09:37.799Z,49.90
2023-05-12T13:12:05.123Z,50.30
2023-05-12T13:14:32.195Z,51.10
2023-05-12T13:16:59.118Z,51.80
2023-05-12T13:19:25.988Z,52.80
2023-05-12T13:21:52.804Z,52.50
2023-05-12T13:24:19.932Z,52.30
2023-05-12T13:26:46.760Z,52.00
2023-05-12T13:29:13.584Z,51.40
2023-05-12T13:31:41.267Z,51.10
2023-05-12T13:34:08.157Z,51.00
2023-05-12T13:36:35.751Z,50.90
2023-05-12T13:39:03.670Z,51.20
2023-05-12T13:41:30.728Z,51.00
2023-05-12T13:43:57.559Z,50.80
2023-05-12T13:46:24.563Z,49.90
2023-05-12T13:48:52.495Z,50.40
2023-05-12T13:51:20.032Z,50.30
2023-05-12T13:53:46.903Z,50.60
2023-05-12T13:56:17.676Z,51.00
2023-05-12T13:58:45.079Z,51.00
2023-05-12T14:01:12.488Z,50.60
2023-05-12T14:03:40.330Z,50.40
2023-05-12T14:06:07.368Z,50.10
2023-05-12T14:08:34.364Z,49.90
2023-05-12T14:11:01.222Z,49.90
2023-05-12T14:13:28.082Z,49.30
2023-05-12T14:15:55.248Z,49.70
2023-05-12T14:18:22.990Z,49.60
2023-05-12T14:20:49.965Z,50.00
2023-05-12T14:23:16.907Z,49.90
2023-05-12T14:25:43.814Z,50.00
2023-05-12T14:28:10.724Z,49.80
2023-05-12T14:30:37.792Z,49.90
2023-05-12T14:33:04.936Z,50.30
2023-05-12T14:35:32.075Z,50.70
2023-05-12T14:37:58.853Z,50.80
2023-05-12T14:40:26.837Z,51.00
2023-05-12T14:42:55.191Z,51.20
2023-05-12T14:45:22.332Z,51.00
2023-05-12T14:47:49.394Z,50.60
2023-05-12T14:50:17.575Z,51.60
2023-05-12T14:52:44.694Z,51.50
2023-05-12T14:55:12.334Z,51.30
2023-05-12T14:57:40.593Z,51.50
2023-05-12T15:00:15.308Z,51.60
2023-05-12T15:02:44.052Z,52.20
2023-05-12T15:05:13.563Z,52.00
2023-05-12T15:07:40.409Z,51.60
2023-05-12T15:10:08.052Z,51.80
2023-05-12T15:12:35.290Z,52.10
2023-05-12T15:15:04.641Z,52.50
2023-05-12T15:17:32.143Z,52.60
2023-05-12T15:19:59.145Z,53.10
2023-05-12T15:22:26.078Z,53.30
2023-05-12T15:24:52.944Z,53.00
2023-05-12T15:27:20.200Z,53.10
2023-05-12T15:29:47.060Z,53.00
2023-05-12T15:32:13.967Z,52.60
2023-05-12T15:34:40.767Z,52.20
2023-05-12T15:37:07.669Z,52.50
2023-05-12T15:39:34.517Z,52.30
2023-05-12T15:42:01.400Z,52.50
2023-05-12T15:44:28.235Z,52.60
2023-05-12T15:46:55.165Z,52.70
2023-05-12T15:49:22.377Z,52.00
2023-05-12T15:51:49.248Z,52.10
2023-05-12T15:54:16.435Z,52.30
2023-05-12T15:56:43.437Z,52.40
2023-05-12T15:59:12.095Z,52.70
2023-05-12T16:01:39.189Z,52.60
2023-05-12T16:04:06.904Z,52.70
2023-05-12T16:06:33.871Z,52.60
2023-05-12T16:09:01.053Z,52.50
2023-05-12T16:11:28.495Z,52.30
2023-05-12T16:13:57.022Z,52.60
2023-05-12T16:16:23.951Z,52.30
2023-05-12T16:18:50.759Z,52.80
2023-05-12T16:21:17.603Z,52.90
2023-05-12T16:23:44.646Z,52.90
2023-05-12T16:26:11.848Z,52.90
2023-05-12T16:28:38.652Z,53.10
2023-05-12T16:31:05.524Z,53.00
2023-05-12T16:33:32.287Z,53.30
2023-05-12T16:35:59.076Z,53.70
2023-05-12T16:38:25.928Z,53.80
2023-05-12T16:40:52.814Z,54.20
2023-05-12T16:43:19.664Z,54.30
2023-05-12T16:45:46.649Z,53.90
2023-05-12T16:48:13.615Z,54.30
2023-05-12T16:50:40.382Z,54.80
2023-05-12T16:53:07.271Z,54.80
2023-05-12T16:55:34.061Z,54.80
2023-05-12T16:58:01.677Z,54.70
2023-05-12T17:00:28.546Z,54.60
2023-05-12T17:02:55.413Z,54.70
2023-05-12T17:05:22.560Z,54.60
2023-05-12T17:07:49.756Z,54.40
2023-05-12T17:10:16.736Z,54.50
2023-05-12T17:12:43.589Z,55.10
2023-05-12T17:15:11.889Z,55.50
2023-05-12T17:17:38.672Z,55.40
2023-05-12T17:20:06.177Z,55.60
2023-05-12T17:22:34.953Z,55.70
2023-05-12T17:25:01.746Z,55.40
2023-05-12T17:27:28.647Z,55.60
2023-05-12T17:29:56.750Z,55.80
2023-05-12T17:32:23.639Z,55.90
2023-05-12T17:34:51.145Z,56.10
2023-05-12T17:37:18.199Z,55.90
2023-05-12T17:39:45.029Z,56.20
2023-05-12T17:42:11.800Z,56.20
2023-05-12T17:44:38.627Z,56.50
2023-05-12T17:47:05.787Z,56.60
2023-05-12T17:49:32.690Z,56.70
2023-05-12T17:51:59.552Z,56.90
2023-05-12T17:54:26.384Z,56.90
2023-05-12T17:56:53.159Z,57.00
2023-05-12T17:59:19.926Z,57.40
2023-05-12T18:01:46.672Z,57.80
2023-05-12T18:04:14.006Z,58.40
2023-05-12T18:06:40.849Z,58.10
2023-05-12T18:09:08.656Z,59.10
2023-05-12T18:11:35.530Z,59.00
2023-05-12T18:14:05.790Z,59.20
2023-05-12T18:16:33.358Z,59.10
2023-05-12T18:19:00.520Z,59.30
2023-05-12T18:21:27.626Z,59.00
2023-05-12T18:23:54.503Z,59.70
2023-05-12T18:26:21.855Z,59.70
2023-05-12T18:28:48.900Z,59.20
2023-05-12T18:31:19.447Z,59.60
2023-05-12T18:33:47.964Z,59.90
2023-05-12T18:36:15.460Z,59.80
2023-05-12T18:38:42.576Z,59.60
2023-05-12T18:41:09.876Z,59.50
2023-05-12T18:43:36.870Z,59.30
2023-05-12T18:46:04.435Z,60.30
2023-05-12T18:48:31.360Z,61.70
2023-05-12T18:50:58.436Z,60.20
2023-05-12T18:53:25.537Z,61.10
2023-05-12T18:55:52.365Z,61.70
2023-05-12T18:58:19.244Z,59.90
2023-05-12T19:00:46.036Z,59.90
2023-05-12T19:03:13.039Z,60.00
2023-05-12T19:05:44.344Z,60.40
2023-05-12T19:08:11.460Z,60.40
2023-05-12T19:10:39.999Z,60.80
2023-05-12T19:13:07.280Z,61.20
2023-05-12T19:15:34.323Z,61.50
2023-05-12T19:18:01.209Z,61.60
2023-05-12T19:20:29.039Z,61.80
2023-05-12T19:22:56.008Z,61.70
2023-05-12T19:25:23.301Z,61.80
2023-05-12T19:27:50.910Z,62.50
2023-05-12T19:30:17.899Z,61.70
2023-05-12T19:32:46.259Z,62.10
2023-05-12T19:35:16.659Z,62.00
2023-05-12T19:37:43.885Z,62.50
2023-05-12T19:40:11.177Z,62.80
2023-05-12T19:42:38.157Z,63.30
2023-05-12T19:45:05.807Z,63.40
2023-05-12T19:47:33.522Z,63.20
2023-05-12T19:50:00.703Z,63.40
2023-05-12T19:52:30.634Z,63.50
2023-05-12T19:54:57.824Z,63.80
2023-05-12T19:57:24.655Z,64.20
2023-05-12T19:59:51.410Z,64.60
2023-05-12T20:02:18.451Z,64.40
2023-05-12T20:04:45.609Z,64.40
2023-05-12T20:07:12.639Z,64.90
2023-05-12T20:09:39.490Z,65.00
2023-05-12T20:12:08.001Z,65.20
2023-05-12T20:14:43.778Z,65.00
2023-05-12T20:17:12.441Z,64.90
2023-05-12T20:19:39.359Z,65.00
2023-05-12T20:22:06.401Z,65.50
2023-05-12T20:24:33.255Z,65.90
2023-05-12T20:27:00.525Z,66.30
2023-05-12T20:29:27.958Z,66.30
2023-05-12T20:31:54.784Z,66.70
2023-05-12T20:34:21.850Z,66.60
2023-05-12T20:36:48.787Z,66.40
2023-05-12T20:39:15.963Z,66.30
2023-05-12T20:41:43.514Z,66.30
2023-05-12T20:44:10.910Z,66.10
2023-05-12T20:46:38.854Z,66.80
2023-05-12T20:49:06.832Z,66.60
2023-05-12T20:51:33.718Z,65.80
2023-05-12T20:54:00.745Z,65.90
2023-05-12T20:56:27.685Z,65.90
2023-05-12T20:58:54.622Z,65.90
2023-05-12T21:01:21.500Z,65.50
2023-05-12T21:03:48.370Z,66.50
2023-05-12T21:06:15.333Z,66.70
2023-05-12T21:08:42.344Z,66.60
2023-05-12T21:11:18.840Z,66.50
2023-05-12T21:13:49.590Z,66.60
2023-05-12T21:16:16.743Z,66.80
2023-05-12T21:18:44.108Z,66.50
2023-05-12T21:21:11.012Z,67.00
2023-05-12T21:23:38.032Z,67.30
2023-05-12T21:26:05.518Z,67.70
2023-05-12T21:28:32.436Z,67.70
2023-05-12T21:30:59.281Z,67.70
2023-05-12T21:33:26.100Z,67.70
2023-05-12T21:35:52.892Z,68.20
2023-05-12T21:38:20.777Z,68.70
2023-05-12T21:40:56.382Z,68.50
2023-05-12T21:43:23.306Z,68.20
2023-05-12T21:45:50.178Z,68.40
2023-05-12T21:48:17.622Z,68.30
2023-05-12T21:50:44.433Z,68.20
2023-05-12T21:53:11.738Z,68.40
2023-05-12T21:55:40.674Z,68.30
2023-05-12T21:58:07.483Z,68.60
2023-05-12T22:00:34.282Z,68.50
2023-05-12T22:03:01.097Z,69.20
2023-05-12T22:05:27.913Z,68.70
2023-05-12T22:07:54.707Z,68.30
2023-05-12T22:10:21.789Z,68.50
2023-05-12T22:12:48.825Z,67.70
2023-05-12T22:15:15.656Z,68.10
2023-05-12T22:17:43.157Z,68.10
2023-05-12T22:20:10.605Z,68.20
2023-05-12T22:22:37.661Z,68.00
2023-05-12T22:25:04.770Z,68.10
2023-05-12T22:27:31.625Z,68.10
2023-05-12T22:29:58.381Z,68.10
2023-05-12T22:32:25.235Z,68.10
2023-05-12T22:34:56.032Z,68.30
2023-05-12T22:37:23.790Z,68.20
2023-05-12T22:39:50.810Z,68.40
2023-05-12T22:42:17.613Z,68.50
2023-05-12T22:44:44.569Z,68.50
2023-05-12T22:47:11.735Z,68.50
2023-05-12T22:49:38.862Z,68.80
2023-05-12T22:52:06.088Z,68.80
2023-05-12T22:54:32.892Z,68.60
2023-05-12T22:56:59.633Z,68.80
2023-05-12T22:59:26.558Z,68.90
2023-05-12T23:01:53.322Z,69.00
2023-05-12T23:04:20.321Z,69.30
2023-05-12T23:06:47.262Z,68.90
2023-05-12T23:09:14.255Z,69.20
2023-05-12T23:11:41.064Z,69.10
2023-05-12T23:14:08.839Z,69.40
2023-05-12T23:16:35.687Z,70.00
2023-05-12T23:19:02.534Z,70.30
2023-05-12T23:21:29.362Z,71.90
2023-05-12T23:23:56.173Z,71.60
2023-05-12T23:26:22.941Z,71.70
2023-05-12T23:28:50.108Z,72.20
2023-05-12T23:31:17.007Z,72.50
2023-05-12T23:33:43.909Z,72.50
2023-05-12T23:36:10.871Z,72.60
2023-05-12T23:38:37.677Z,73.30
2023-05-12T23:41:04.604Z,72.80
2023-05-12T23:43:31.382Z,73.00
2023-05-12T23:45:58.389Z,73.00
2023-05-12T23:48:26.124Z,73.10
2023-05-12T23:50:53.048Z,73.40
2023-05-12T23:53:19.857Z,73.80
2023-05-12T23:55:46.715Z,73.80
2023-05-12T23:58:13.558Z,72.80
